Time;durP1;ratioP1;P1;durP2;ratioP2;P2;SDS_P1;SDS_P2;PMS_P1;PMS_P2;Temp;Humidity;BMP_temperature;BMP_pressure;BME280_temperature;BME280_humidity;BME280_pressure;Samples;Min_cycle;Max_cycle;Signal;HPM_P1;HPM_P2
2022/12/11 00:00:10;;;;;;;9.02;3.78;;;;;;;;;;5037584;28;20128;-90
2022/12/11 00:02:43;;;;;;;6.88;3.65;;;;;;;;;;5036222;28;20051;-90
2022/12/11 00:05:16;;;;;;;12.10;5.03;;;;;;;;;;5035620;28;20132;-90
2022/12/11 00:07:43;;;;;;;9.45;4.03;;;;;;;;;;5044534;28;20037;-89
2022/12/11 00:10:11;;;;;;;7.72;3.83;;;;;;;;;;5065211;28;20045;-89
2022/12/11 00:12:39;;;;;;;10.75;5.03;;;;;;;;;;5046474;28;20044;-89
2022/12/11 00:15:31;;;;;;;10.32;4.90;;;;;;;;;;5077136;28;20033;-89
2022/12/11 00:18:22;;;;;;;10.13;4.63;;;;;;;;;;5044649;28;20028;-88
2022/12/11 00:20:51;;;;;;;8.63;3.83;;;;;;;;;;5078031;28;20060;-90
2022/12/11 00:23:19;;;;;;;9.48;4.45;;;;;;;;;;5039478;28;20042;-89
2022/12/11 00:26:14;;;;;;;8.57;3.97;;;;;;;;;;5069617;28;20041;-88
2022/12/11 00:28:47;;;;;;;10.95;5.00;;;;;;;;;;5049634;28;20547;-88
2022/12/11 00:31:17;;;;;;;10.45;4.25;;;;;;;;;;5042872;28;20107;-89
2022/12/11 00:33:50;;;;;;;8.38;3.85;;;;;;;;;;5021418;28;20046;-89
2022/12/11 00:36:20;;;;;;;10.63;4.38;;;;;;;;;;5047641;28;20041;-89
2022/12/11 00:38:50;;;;;;;8.68;3.65;;;;;;;;;;5038475;28;20044;-89
2022/12/11 00:41:48;;;;;;;9.15;3.90;;;;;;;;;;5040706;28;20405;-89
2022/12/11 00:44:15;;;;;;;9.77;3.90;;;;;;;;;;5043671;28;20037;-88
2022/12/11 00:46:43;;;;;;;9.82;3.65;;;;;;;;;;5081375;28;20041;-89
2022/12/11 00:49:37;;;;;;;8.80;4.10;;;;;;;;;;5072740;28;20037;-89
2022/12/11 00:52:09;;;;;;;10.30;4.40;;;;;;;;;;5045267;28;20045;-88
2022/12/11 00:54:40;;;;;;;9.48;4.35;;;;;;;;;;5046252;28;20098;-88
2022/12/11 00:57:15;;;;;;;9.77;4.20;;;;;;;;;;5077954;28;20041;-88
2022/12/11 01:00:11;;;;;;;8.20;3.85;;;;;;;;;;5047306;28;20041;-88
2022/12/11 01:02:47;;;;;;;10.32;4.50;;;;;;;;;;5015935;28;20057;-89
2022/12/11 01:05:17;;;;;;;10.70;4.22;;;;;;;;;;5030079;28;20072;-89
2022/12/11 01:07:52;;;;;;;11.18;4.53;;;;;;;;;;5044659;28;20105;-89
2022/12/11 01:10:27;;;;;;;9.63;4.10;;;;;;;;;;5044432;28;20120;-87
2022/12/11 01:13:05;;;;;;;6.50;3.88;;;;;;;;;;5044244;28;20072;-88
2022/12/11 01:15:40;;;;;;;11.93;4.88;;;;;;;;;;5048658;28;20033;-89
2022/12/11 01:18:13;;;;;;;9.65;3.72;;;;;;;;;;5044981;28;20030;-89
2022/12/11 01:20:41;;;;;;;7.63;3.83;;;;;;;;;;5047363;28;20048;-89
2022/12/11 01:23:11;;;;;;;8.05;3.55;;;;;;;;;;5043445;28;20045;-89
2022/12/11 01:25:39;;;;;;;9.38;4.07;;;;;;;;;;5083408;28;20045;-89
2022/12/11 01:28:07;;;;;;;9.15;4.63;;;;;;;;;;5074539;28;20095;-89
2022/12/11 01:31:01;;;;;;;9.15;4.03;;;;;;;;;;5043361;28;20094;-89
2022/12/11 01:33:33;;;;;;;10.70;4.70;;;;;;;;;;5042744;28;20041;-89
2022/12/11 01:36:13;;;;;;;9.05;3.90;;;;;;;;;;5042853;28;20102;-89
2022/12/11 01:38:41;;;;;;;12.50;4.72;;;;;;;;;;5041481;28;20106;-88
2022/12/11 01:41:14;;;;;;;14.23;5.10;;;;;;;;;;5046637;28;20041;-89
2022/12/11 01:44:07;;;;;;;11.00;4.57;;;;;;;;;;5075996;28;20037;-89
2022/12/11 01:46:39;;;;;;;8.57;4.25;;;;;;;;;;5058027;28;20083;-89
2022/12/11 01:49:15;;;;;;;9.57;4.35;;;;;;;;;;5043240;28;20033;-88
2022/12/11 01:52:14;;;;;;;9.93;3.83;;;;;;;;;;5023614;28;20038;-89
2022/12/11 01:54:42;;;;;;;7.55;3.50;;;;;;;;;;5042270;28;20047;-88
2022/12/11 01:57:15;;;;;;;10.15;4.88;;;;;;;;;;5026739;28;20140;-88
2022/12/11 01:59:45;;;;;;;11.82;5.57;;;;;;;;;;5058345;28;20029;-88
2022/12/11 02:02:41;;;;;;;10.98;4.38;;;;;;;;;;5050169;28;20044;-88
2022/12/11 02:05:09;;;;;;;11.48;4.45;;;;;;;;;;4994881;28;20402;-88
2022/12/11 02:07:42;;;;;;;9.95;4.80;;;;;;;;;;5043680;28;20094;-88
2022/12/11 02:10:11;;;;;;;12.75;5.65;;;;;;;;;;5073681;28;20043;-88
2022/12/11 02:12:44;;;;;;;14.10;5.57;;;;;;;;;;5080766;28;20050;-88
2022/12/11 02:15:23;;;;;;;11.00;5.40;;;;;;;;;;5041947;28;20050;-88
2022/12/11 02:17:51;;;;;;;14.68;5.88;;;;;;;;;;5045262;28;20033;-88
2022/12/11 02:20:26;;;;;;;14.68;5.57;;;;;;;;;;5046238;28;20055;-88
2022/12/11 02:23:37;;;;;;;17.27;5.88;;;;;;;;;;5049822;28;20033;-88
2022/12/11 02:26:32;;;;;;;11.90;5.13;;;;;;;;;;5045757;28;20049;-88
2022/12/11 02:29:02;;;;;;;14.00;5.07;;;;;;;;;;4934411;29;20082;-88
2022/12/11 02:31:34;;;;;;;10.88;4.85;;;;;;;;;;4975499;28;20082;-88
2022/12/11 02:34:19;;;;;;;13.50;6.25;;;;;;;;;;4956117;28;20047;-88
2022/12/11 02:36:51;;;;;;;15.57;5.70;;;;;;;;;;4959846;28;20676;-88
2022/12/11 02:39:25;;;;;;;11.93;5.10;;;;;;;;;;4928709;28;20055;-88
2022/12/11 02:41:54;;;;;;;12.25;5.28;;;;;;;;;;4973288;28;20039;-88
2022/12/11 02:44:25;;;;;;;13.88;5.53;;;;;;;;;;4959052;29;20106;-88
2022/12/11 02:46:54;;;;;;;15.05;7.03;;;;;;;;;;4970503;28;20039;-88
2022/12/11 02:49:22;;;;;;;14.52;5.90;;;;;;;;;;4957132;28;20047;-88
2022/12/11 02:51:51;;;;;;;21.33;6.78;;;;;;;;;;4936973;29;20047;-87
2022/12/11 02:54:27;;;;;;;11.38;4.65;;;;;;;;;;4973349;28;20049;-88
2022/12/11 02:57:03;;;;;;;16.52;6.00;;;;;;;;;;4974152;28;20043;-88
2022/12/11 02:59:35;;;;;;;12.38;5.20;;;;;;;;;;4957798;28;20114;-88
2022/12/11 03:02:03;;;;;;;12.90;5.93;;;;;;;;;;4958033;28;20107;-88
2022/12/11 03:04:32;;;;;;;15.38;5.07;;;;;;;;;;4950708;29;20046;-88
2022/12/11 03:07:31;;;;;;;12.02;4.07;;;;;;;;;;5046017;28;20489;-88
2022/12/11 03:09:59;;;;;;;8.38;4.05;;;;;;;;;;5049357;28;20112;-88
2022/12/11 03:12:37;;;;;;;11.35;4.80;;;;;;;;;;5047057;28;20037;-88
2022/12/11 03:16:03;;;;;;;10.20;4.40;;;;;;;;;;5038993;28;20021;-88
2022/12/11 03:19:07;;;;;;;10.68;4.90;;;;;;;;;;5046119;28;20111;-88
2022/12/11 03:21:44;;;;;;;8.00;3.90;;;;;;;;;;5049634;28;20049;-88
2022/12/11 03:24:30;;;;;;;14.18;5.28;;;;;;;;;;5045707;28;20033;-88
2022/12/11 03:27:04;;;;;;;9.82;5.22;;;;;;;;;;5054918;28;20044;-88
2022/12/11 03:29:41;;;;;;;11.45;5.65;;;;;;;;;;5038782;28;20120;-88
2022/12/11 03:32:21;;;;;;;13.45;5.50;;;;;;;;;;5047052;28;20389;-88
2022/12/11 03:34:58;;;;;;;12.35;4.90;;;;;;;;;;5052336;28;20072;-88
2022/12/11 03:37:53;;;;;;;12.52;6.18;;;;;;;;;;5061518;28;20025;-88
2022/12/11 03:40:23;;;;;;;11.18;5.35;;;;;;;;;;5034108;28;20065;-88
2022/12/11 03:42:53;;;;;;;12.23;5.40;;;;;;;;;;5047602;28;20033;-88
2022/12/11 03:45:22;;;;;;;11.95;6.13;;;;;;;;;;5086632;28;20033;-88
2022/12/11 03:47:53;;;;;;;12.05;4.80;;;;;;;;;;5081972;28;20033;-88
2022/12/11 03:50:30;;;;;;;12.77;5.57;;;;;;;;;;5047661;28;20043;-87
2022/12/11 03:53:25;;;;;;;12.98;5.45;;;;;;;;;;5019009;28;20041;-89
2022/12/11 03:56:20;;;;;;;12.05;5.80;;;;;;;;;;5065927;28;20109;-88
2022/12/11 03:58:49;;;;;;;14.43;5.38;;;;;;;;;;5052128;28;20118;-88
2022/12/11 04:01:17;;;;;;;9.10;4.32;;;;;;;;;;5062177;28;20071;-88
2022/12/11 04:03:45;;;;;;;13.38;6.05;;;;;;;;;;5048353;28;20041;-86
2022/12/11 04:06:13;;;;;;;10.70;5.78;;;;;;;;;;5027552;28;20037;-87
2022/12/11 04:08:41;;;;;;;9.80;5.00;;;;;;;;;;5033909;28;20417;-88
2022/12/11 04:26:09;;;;;;;10.35;5.15;;;;;;;;;;5050887;28;20105;-88
2022/12/11 04:29:27;;;;;;;13.95;5.35;;;;;;;;;;5049205;28;20037;-88
2022/12/11 04:32:04;;;;;;;11.10;4.70;;;;;;;;;;5048517;28;20071;-88
2022/12/11 04:34:31;;;;;;;11.73;5.57;;;;;;;;;;5034297;28;20045;-88
2022/12/11 04:37:08;;;;;;;11.32;5.75;;;;;;;;;;5042781;28;20037;-88
2022/12/11 04:39:37;;;;;;;11.50;4.68;;;;;;;;;;5047149;28;20033;-88
2022/12/11 04:42:29;;;;;;;11.48;5.35;;;;;;;;;;5046441;28;20111;-88
2022/12/11 04:44:57;;;;;;;13.32;5.75;;;;;;;;;;5078607;28;20056;-88
2022/12/11 04:47:25;;;;;;;11.00;4.80;;;;;;;;;;5053235;28;20037;-88
2022/12/11 04:49:53;;;;;;;14.35;6.00;;;;;;;;;;5045876;28;20040;-88
2022/12/11 04:52:25;;;;;;;8.57;4.18;;;;;;;;;;5044107;28;20037;-88
2022/12/11 04:54:53;;;;;;;13.80;5.72;;;;;;;;;;5052580;28;20037;-88
2022/12/11 04:57:21;;;;;;;12.80;5.50;;;;;;;;;;5045910;28;20055;-88
2022/12/11 04:59:53;;;;;;;13.77;5.88;;;;;;;;;;5079159;28;20092;-88
2022/12/11 05:02:21;;;;;;;12.77;5.47;;;;;;;;;;5068219;28;20045;-88
2022/12/11 05:04:49;;;;;;;11.95;5.45;;;;;;;;;;5045085;28;20129;-88
2022/12/11 05:07:22;;;;;;;12.85;5.50;;;;;;;;;;5041780;28;20052;-88
2022/12/11 05:09:55;;;;;;;13.45;6.30;;;;;;;;;;5046074;28;20033;-88
2022/12/11 05:12:23;;;;;;;11.75;5.05;;;;;;;;;;5049221;28;20033;-88
2022/12/11 05:15:15;;;;;;;13.65;5.68;;;;;;;;;;5048086;28;20066;-89
2022/12/11 05:17:47;;;;;;;15.05;5.45;;;;;;;;;;5043716;28;20545;-88
2022/12/11 05:20:19;;;;;;;13.43;5.65;;;;;;;;;;5063789;28;20105;-88
2022/12/11 05:22:47;;;;;;;14.20;5.55;;;;;;;;;;5048033;28;20040;-88
2022/12/11 05:25:15;;;;;;;15.90;6.10;;;;;;;;;;5045745;28;20047;-88
2022/12/11 05:27:42;;;;;;;14.93;7.28;;;;;;;;;;5047780;28;20041;-88
2022/12/11 05:30:11;;;;;;;18.98;7.32;;;;;;;;;;5026618;28;20038;-88
2022/12/11 05:32:42;;;;;;;16.60;7.13;;;;;;;;;;5043569;28;20052;-88
2022/12/11 05:35:15;;;;;;;15.45;7.28;;;;;;;;;;5041055;28;20048;-88
2022/12/11 05:37:43;;;;;;;15.75;6.47;;;;;;;;;;5049811;28;20068;-88
2022/12/11 05:40:11;;;;;;;13.68;5.85;;;;;;;;;;5042283;28;20033;-88
2022/12/11 05:42:39;;;;;;;14.55;7.20;;;;;;;;;;5046618;28;20036;-88
2022/12/11 05:45:11;;;;;;;16.48;5.88;;;;;;;;;;5059090;28;20038;-88
2022/12/11 05:47:39;;;;;;;16.17;6.35;;;;;;;;;;5058177;28;20039;-88
2022/12/11 05:50:07;;;;;;;14.63;6.63;;;;;;;;;;5031634;28;20408;-88
2022/12/11 05:52:35;;;;;;;14.82;6.57;;;;;;;;;;5047187;28;20045;-88
2022/12/11 05:55:26;;;;;;;15.07;6.32;;;;;;;;;;5077309;28;20037;-88
2022/12/11 05:57:59;;;;;;;20.52;8.13;;;;;;;;;;5062429;28;20132;-88
2022/12/11 06:00:27;;;;;;;20.50;6.82;;;;;;;;;;5041831;28;20049;-88
2022/12/11 06:03:03;;;;;;;15.63;6.80;;;;;;;;;;5048859;28;20033;-88
2022/12/11 06:05:31;;;;;;;12.23;5.95;;;;;;;;;;5051884;28;20086;-88
2022/12/11 06:07:59;;;;;;;17.40;6.82;;;;;;;;;;5051509;28;20073;-88
2022/12/11 06:10:27;;;;;;;16.63;6.72;;;;;;;;;;5040534;28;20393;-88
2022/12/11 06:12:55;;;;;;;16.58;7.57;;;;;;;;;;5044192;28;20045;-88
2022/12/11 06:15:23;;;;;;;18.50;6.88;;;;;;;;;;5046951;28;20052;-88
2022/12/11 06:17:51;;;;;;;17.83;7.40;;;;;;;;;;5046433;28;20505;-88
2022/12/11 06:20:43;;;;;;;14.52;5.68;;;;;;;;;;5059619;28;20025;-88
2022/12/11 06:23:15;;;;;;;15.98;6.80;;;;;;;;;;5072095;28;20072;-88
2022/12/11 06:25:43;;;;;;;16.67;7.78;;;;;;;;;;5049878;28;20029;-88
2022/12/11 06:28:11;;;;;;;13.75;6.85;;;;;;;;;;5077791;28;20049;-88
2022/12/11 06:31:03;;;;;;;18.30;7.85;;;;;;;;;;5077578;28;20052;-88
2022/12/11 06:34:21;;;;;;;15.40;6.05;;;;;;;;;;5045768;28;20034;-88
2022/12/11 06:36:49;;;;;;;16.60;6.22;;;;;;;;;;5075174;28;20034;-88
2022/12/11 06:39:17;;;;;;;13.85;6.25;;;;;;;;;;5046434;28;20060;-88
2022/12/11 06:42:10;;;;;;;17.13;7.45;;;;;;;;;;5017061;28;20112;-88
2022/12/11 06:44:39;;;;;;;15.85;6.70;;;;;;;;;;5046836;28;20486;-88
2022/12/11 06:47:06;;;;;;;15.95;6.53;;;;;;;;;;5046351;28;20041;-88
2022/12/11 06:49:35;;;;;;;15.93;6.55;;;;;;;;;;5047087;28;20059;-88
2022/12/11 06:52:06;;;;;;;13.70;6.50;;;;;;;;;;5048075;28;20036;-88
2022/12/11 06:54:35;;;;;;;16.90;6.68;;;;;;;;;;5050647;28;20041;-88
2022/12/11 06:57:27;;;;;;;15.02;6.45;;;;;;;;;;5050608;28;20083;-88
2022/12/11 06:59:55;;;;;;;22.70;7.50;;;;;;;;;;5049917;28;20029;-88
2022/12/11 07:02:23;;;;;;;20.17;7.13;;;;;;;;;;5049306;28;20064;-88
2022/12/11 07:04:51;;;;;;;19.90;7.40;;;;;;;;;;5033072;28;20056;-88
2022/12/11 07:07:21;;;;;;;17.33;6.45;;;;;;;;;;5036569;28;20041;-88
2022/12/11 07:10:37;;;;;;;15.25;6.18;;;;;;;;;;5050971;28;20029;-88
2022/12/11 07:13:09;;;;;;;21.17;7.07;;;;;;;;;;5060467;28;20381;-88
2022/12/11 07:15:37;;;;;;;17.02;7.07;;;;;;;;;;5036452;28;20049;-88
2022/12/11 07:18:07;;;;;;;11.75;5.75;;;;;;;;;;5047436;28;20041;-88
2022/12/11 07:20:35;;;;;;;18.08;7.18;;;;;;;;;;5045771;28;20072;-88
2022/12/11 07:23:03;;;;;;;17.13;6.80;;;;;;;;;;5050326;28;20068;-87
2022/12/11 07:25:31;;;;;;;18.50;6.93;;;;;;;;;;5083454;28;20456;-88
2022/12/11 07:27:59;;;;;;;16.52;7.15;;;;;;;;;;5071097;28;20065;-88
2022/12/11 07:30:27;;;;;;;16.40;6.80;;;;;;;;;;5074783;28;20037;-88
2022/12/11 07:32:59;;;;;;;17.42;6.88;;;;;;;;;;5045013;28;21023;-87
2022/12/11 07:35:34;;;;;;;17.67;7.20;;;;;;;;;;5048162;28;20052;-88
2022/12/11 07:38:01;;;;;;;16.88;7.65;;;;;;;;;;5077387;28;20052;-87
2022/12/11 07:40:33;;;;;;;16.90;7.47;;;;;;;;;;5047410;28;20052;-88
2022/12/11 07:43:03;;;;;;;17.95;6.90;;;;;;;;;;5051332;28;20112;-88
2022/12/11 07:46:02;;;;;;;16.70;6.60;;;;;;;;;;5045921;28;20041;-88
2022/12/11 07:48:31;;;;;;;16.35;7.10;;;;;;;;;;5010334;28;20075;-88
2022/12/11 07:51:17;;;;;;;13.13;7.30;;;;;;;;;;5049483;28;20049;-88
2022/12/11 07:53:49;;;;;;;15.70;6.70;;;;;;;;;;5084546;28;20489;-88
2022/12/11 07:56:17;;;;;;;20.63;7.03;;;;;;;;;;5051601;28;20059;-87
2022/12/11 07:58:45;;;;;;;16.52;7.13;;;;;;;;;;5032397;28;20041;-88
2022/12/11 08:01:21;;;;;;;18.17;7.70;;;;;;;;;;5075565;28;20029;-88
2022/12/11 08:03:49;;;;;;;15.52;6.35;;;;;;;;;;5048365;28;20033;-88
2022/12/11 08:06:32;;;;;;;17.77;6.97;;;;;;;;;;5050426;28;20048;-88
2022/12/11 08:09:25;;;;;;;17.58;7.72;;;;;;;;;;5050489;28;20037;-87
2022/12/11 08:11:53;;;;;;;24.70;9.32;;;;;;;;;;5045994;28;20083;-88
2022/12/11 08:14:21;;;;;;;16.88;7.07;;;;;;;;;;5049970;28;20068;-88
2022/12/11 08:16:49;;;;;;;17.50;7.55;;;;;;;;;;5046465;28;20120;-88
2022/12/11 08:19:17;;;;;;;14.40;6.57;;;;;;;;;;5048547;28;20038;-88
2022/12/11 08:21:45;;;;;;;19.05;7.57;;;;;;;;;;5049727;28;20063;-88
2022/12/11 08:24:15;;;;;;;15.68;7.07;;;;;;;;;;5049079;28;20045;-88
2022/12/11 08:26:45;;;;;;;15.00;6.15;;;;;;;;;;5042303;28;20563;-88
2022/12/11 08:30:03;;;;;;;18.02;6.45;;;;;;;;;;5044406;28;20043;-87
2022/12/11 08:32:55;;;;;;;14.60;6.15;;;;;;;;;;5037071;28;20033;-87
2022/12/11 08:35:26;;;;;;;15.90;5.75;;;;;;;;;;5039929;28;20100;-87
2022/12/11 08:37:55;;;;;;;19.00;6.70;;;;;;;;;;5047336;28;20064;-86
2022/12/11 08:40:23;;;;;;;16.00;6.60;;;;;;;;;;5068591;28;20408;-86
2022/12/11 08:42:51;;;;;;;16.05;6.78;;;;;;;;;;5071376;28;20041;-87
2022/12/11 08:45:42;;;;;;;15.57;6.38;;;;;;;;;;5035961;28;20071;-87
2022/12/11 08:48:15;;;;;;;19.98;7.18;;;;;;;;;;5040530;28;20128;-86
2022/12/11 08:51:12;;;;;;;19.10;7.53;;;;;;;;;;5073389;28;20033;-86
2022/12/11 08:54:03;;;;;;;17.45;6.80;;;;;;;;;;5051939;28;20048;-86
2022/12/11 08:56:31;;;;;;;18.25;7.90;;;;;;;;;;5064747;28;20041;-87
2022/12/11 08:59:00;;;;;;;14.43;6.47;;;;;;;;;;5040190;28;20041;-86
2022/12/11 09:01:27;;;;;;;16.80;6.38;;;;;;;;;;5029915;28;20033;-86
2022/12/11 09:04:01;;;;;;;15.90;6.97;;;;;;;;;;5046598;28;20102;-86
2022/12/11 09:06:31;;;;;;;19.05;7.05;;;;;;;;;;5033853;28;20517;-86
2022/12/11 09:09:25;;;;;;;18.65;8.30;;;;;;;;;;5029642;28;20034;-86
2022/12/11 09:11:53;;;;;;;15.02;7.18;;;;;;;;;;5029320;28;20568;-86
2022/12/11 09:14:21;;;;;;;14.15;5.63;;;;;;;;;;5036440;28;20164;-86
2022/12/11 09:16:49;;;;;;;15.55;7.10;;;;;;;;;;5053704;28;20045;-86
2022/12/11 09:19:17;;;;;;;19.23;7.38;;;;;;;;;;5037030;28;20055;-87
2022/12/11 09:21:45;;;;;;;15.95;6.82;;;;;;;;;;5032323;28;20124;-87
2022/12/11 09:24:17;;;;;;;17.48;8.13;;;;;;;;;;5065219;28;20041;-88
2022/12/11 09:26:46;;;;;;;17.08;6.82;;;;;;;;;;5034425;28;20055;-87
2022/12/11 09:29:18;;;;;;;15.30;7.55;;;;;;;;;;5022702;28;20032;-86
2022/12/11 09:34:37;;;;;;;20.45;7.57;;;;;;;;;;5037023;28;20091;-86
2022/12/11 09:37:05;;;;;;;17.45;6.85;;;;;;;;;;5036208;28;20118;-86
2022/12/11 09:39:33;;;;;;;17.10;8.10;;;;;;;;;;5069426;28;20036;-86
2022/12/11 09:42:12;;;;;;;17.38;7.85;;;;;;;;;;5033735;28;20778;-86
2022/12/11 09:45:05;;;;;;;17.60;7.03;;;;;;;;;;5021132;28;20043;-87
2022/12/11 09:47:44;;;;;;;15.20;6.95;;;;;;;;;;5049790;28;20044;-86
2022/12/11 09:50:24;;;;;;;13.45;6.93;;;;;;;;;;5037631;28;20037;-87
2022/12/11 09:53:03;;;;;;;16.02;6.43;;;;;;;;;;5041490;28;20091;-87
2022/12/11 09:56:03;;;;;;;15.68;7.25;;;;;;;;;;5043256;28;20041;-88
2022/12/11 09:59:12;;;;;;;24.13;8.65;;;;;;;;;;4949261;28;20559;-88
2022/12/11 10:02:04;;;;;;;17.95;7.90;;;;;;;;;;4966038;28;20043;-87
2022/12/11 10:04:39;;;;;;;12.95;5.10;;;;;;;;;;4967263;28;20550;-87
2022/12/11 10:07:39;;;;;;;16.45;6.63;;;;;;;;;;4952189;28;20578;-87
2022/12/11 10:10:09;;;;;;;20.75;7.95;;;;;;;;;;4957688;28;20162;-87
2022/12/11 10:12:47;;;;;;;10.18;6.13;;;;;;;;;;4953802;28;20050;-89
2022/12/11 10:15:39;;;;;;;16.27;7.43;;;;;;;;;;4934214;28;20054;-87
2022/12/11 10:18:16;;;;;;;15.57;6.57;;;;;;;;;;4966081;28;20061;-88
2022/12/11 10:20:46;;;;;;;15.45;6.95;;;;;;;;;;4941067;28;20055;-87
2022/12/11 10:23:55;;;;;;;13.55;6.40;;;;;;;;;;4955367;28;20046;-88
2022/12/11 10:26:28;;;;;;;14.00;6.43;;;;;;;;;;4941665;28;20485;-87
2022/12/11 10:29:19;;;;;;;19.55;6.88;;;;;;;;;;4955492;28;20047;-88
2022/12/11 10:31:58;;;;;;;20.02;7.53;;;;;;;;;;4955429;28;20047;-87
2022/12/11 10:34:38;;;;;;;15.63;6.90;;;;;;;;;;4965373;28;20142;-87
2022/12/11 10:37:07;;;;;;;15.05;6.18;;;;;;;;;;5036457;28;20132;-88
2022/12/11 10:45:21;;;;;;;20.02;7.28;;;;;;;;;;5039671;28;20037;-88
2022/12/11 10:47:49;;;;;;;15.95;6.47;;;;;;;;;;5035700;28;20050;-88
2022/12/11 10:50:23;;;;;;;13.93;6.90;;;;;;;;;;5033150;28;20066;-89
2022/12/11 10:52:56;;;;;;;17.73;7.90;;;;;;;;;;5037393;28;20064;-88
2022/12/11 10:55:58;;;;;;;14.48;6.22;;;;;;;;;;5034832;28;20513;-88
2022/12/11 10:58:32;;;;;;;18.15;7.57;;;;;;;;;;4932828;29;20039;-88
2022/12/11 11:01:06;;;;;;;11.60;5.25;;;;;;;;;;4949841;29;20138;-88
2022/12/11 11:04:00;;;;;;;12.80;5.50;;;;;;;;;;4935484;28;20039;-89
2022/12/11 11:06:33;;;;;;;13.18;6.13;;;;;;;;;;4933073;28;20089;-89
2022/12/11 11:09:02;;;;;;;14.45;6.88;;;;;;;;;;4952233;29;20051;-89
2022/12/11 11:11:37;;;;;;;14.20;6.15;;;;;;;;;;4932853;29;20055;-88
2022/12/11 11:14:16;;;;;;;15.15;6.75;;;;;;;;;;4945007;28;20059;-87
2022/12/11 11:16:53;;;;;;;14.98;6.43;;;;;;;;;;4936504;29;20090;-87
2022/12/11 11:19:29;;;;;;;14.18;7.05;;;;;;;;;;4937771;29;20055;-87
2022/12/11 11:22:21;;;;;;;15.55;5.82;;;;;;;;;;4940045;29;20047;-87
2022/12/11 11:24:55;;;;;;;15.82;7.03;;;;;;;;;;4925606;29;20046;-87
2022/12/11 11:28:00;;;;;;;12.73;5.80;;;;;;;;;;4947329;28;20047;-87
2022/12/11 11:30:31;;;;;;;12.07;4.80;;;;;;;;;;4946142;29;20035;-87
2022/12/11 11:33:04;;;;;;;15.00;5.55;;;;;;;;;;4995892;28;20858;-88
2022/12/11 11:35:31;;;;;;;15.43;5.47;;;;;;;;;;5035452;28;20172;-86
2022/12/11 11:38:17;;;;;;;19.70;6.75;;;;;;;;;;5053436;28;20037;-87
2022/12/11 11:41:08;;;;;;;13.73;6.07;;;;;;;;;;5039307;28;21824;-86
2022/12/11 11:43:53;;;;;;;11.52;5.28;;;;;;;;;;5036077;28;20056;-86
2022/12/11 11:46:33;;;;;;;15.27;6.13;;;;;;;;;;5037878;28;20029;-86
2022/12/11 11:49:21;;;;;;;16.10;6.03;;;;;;;;;;5073082;28;20128;-87
2022/12/11 11:52:18;;;;;;;14.52;6.35;;;;;;;;;;5042716;28;20468;-87
2022/12/11 11:55:01;;;;;;;15.05;6.55;;;;;;;;;;5048258;28;20045;-87
2022/12/11 11:58:01;;;;;;;18.00;6.88;;;;;;;;;;5010089;28;20042;-87
2022/12/11 12:00:55;;;;;;;14.05;6.63;;;;;;;;;;5041893;28;20501;-87
2022/12/11 12:03:28;;;;;;;12.90;5.90;;;;;;;;;;5080915;28;20053;-86
2022/12/11 12:06:44;;;;;;;16.35;7.07;;;;;;;;;;5066758;28;20044;-86
2022/12/11 12:10:15;;;;;;;13.48;6.28;;;;;;;;;;5044726;28;20037;-86
2022/12/11 12:12:53;;;;;;;17.65;6.85;;;;;;;;;;5037624;28;20069;-87
2022/12/11 12:15:42;;;;;;;14.20;6.20;;;;;;;;;;5043599;28;20048;-87
2022/12/11 12:18:22;;;;;;;13.90;6.55;;;;;;;;;;5043872;28;20042;-87
2022/12/11 12:21:33;;;;;;;16.50;7.18;;;;;;;;;;5048163;28;20053;-87
2022/12/11 12:24:06;;;;;;;17.38;7.43;;;;;;;;;;4949649;28;20054;-86
2022/12/11 12:26:42;;;;;;;16.42;6.07;;;;;;;;;;4953373;28;20895;-83
2022/12/11 12:29:16;;;;;;;13.85;6.95;;;;;;;;;;4944654;28;20111;-86
2022/12/11 12:31:54;;;;;;;20.02;7.45;;;;;;;;;;4946224;28;20094;-86
2022/12/11 12:35:08;;;;;;;17.77;7.20;;;;;;;;;;4951452;29;20440;-86
2022/12/11 12:41:04;;;;;;;15.95;6.25;;;;;;;;;;5204799;23;20500;-81
2022/12/11 12:43:47;;;;;;;16.58;6.25;;;;;;;;;;5035634;28;20072;-82
2022/12/11 12:46:33;;;;;;;16.10;6.70;;;;;;;;;;5024341;28;20121;-82
2022/12/11 12:49:11;;;;;;;16.80;8.15;;;;;;;;;;5024011;28;20057;-82
2022/12/11 12:51:46;;;;;;;15.50;5.68;;;;;;;;;;5005293;28;20041;-81
2022/12/11 12:54:16;;;;;;;16.58;5.88;;;;;;;;;;5007875;28;20050;-81
2022/12/11 12:56:49;;;;;;;18.40;6.78;;;;;;;;;;5007925;28;20045;-81
2022/12/11 12:59:18;;;;;;;17.25;7.82;;;;;;;;;;5002902;28;20089;-82
2022/12/11 13:01:51;;;;;;;12.48;5.90;;;;;;;;;;5024805;28;20041;-82
2022/12/11 13:04:33;;;;;;;18.65;7.43;;;;;;;;;;5025574;28;20110;-82
2022/12/11 13:07:28;;;;;;;17.15;7.63;;;;;;;;;;5038852;28;20094;-82
2022/12/11 13:10:31;;;;;;;14.93;6.30;;;;;;;;;;5026402;28;20030;-82
2022/12/11 13:13:00;;;;;;;16.13;6.35;;;;;;;;;;5005507;28;20042;-81
2022/12/11 13:15:39;;;;;;;13.27;4.65;;;;;;;;;;5022082;28;20594;-80
2022/12/11 13:18:33;;;;;;;16.83;6.00;;;;;;;;;;5026144;28;20045;-80
2022/12/11 13:21:37;;;;;;;13.73;4.80;;;;;;;;;;5027130;28;20047;-80
2022/12/11 13:24:12;;;;;;;16.73;6.13;;;;;;;;;;5009480;28;20144;-81
2022/12/11 13:26:39;;;;;;;16.95;6.20;;;;;;;;;;5032558;28;20431;-81
2022/12/11 13:29:33;;;;;;;13.75;6.63;;;;;;;;;;5008728;28;20133;-81
2022/12/11 13:32:10;;;;;;;13.90;5.85;;;;;;;;;;5021114;28;20043;-83
2022/12/11 13:34:40;;;;;;;14.52;5.93;;;;;;;;;;5026294;28;20505;-82
2022/12/11 13:37:22;;;;;;;20.05;7.68;;;;;;;;;;5033028;28;20081;-82
2022/12/11 13:39:49;;;;;;;15.27;7.07;;;;;;;;;;5028558;28;20072;-82
2022/12/11 13:42:31;;;;;;;17.70;6.97;;;;;;;;;;5028100;28;20242;-82
2022/12/11 13:45:00;;;;;;;19.38;6.68;;;;;;;;;;5028972;28;20053;-82
2022/12/11 13:47:27;;;;;;;14.80;6.28;;;;;;;;;;5031261;28;20058;-82
2022/12/11 13:50:06;;;;;;;16.17;6.35;;;;;;;;;;5029861;28;20041;-82
2022/12/11 13:53:00;;;;;;;14.40;5.95;;;;;;;;;;5032653;28;20041;-81
2022/12/11 13:55:33;;;;;;;12.77;5.82;;;;;;;;;;5014729;28;20050;-82
2022/12/11 13:58:01;;;;;;;14.75;7.07;;;;;;;;;;5027662;28;20067;-81
2022/12/11 14:00:33;;;;;;;14.80;5.93;;;;;;;;;;5027539;28;20037;-81
2022/12/11 14:03:06;;;;;;;15.95;6.55;;;;;;;;;;5022811;28;20045;-81
2022/12/11 14:05:33;;;;;;;20.67;7.10;;;;;;;;;;5017452;28;20068;-81
2022/12/11 14:08:07;;;;;;;14.13;6.65;;;;;;;;;;5021401;28;20124;-80
2022/12/11 14:10:35;;;;;;;14.18;6.68;;;;;;;;;;4987458;28;20389;-81
2022/12/11 14:13:34;;;;;;;18.65;7.40;;;;;;;;;;5009798;28;20605;-81
2022/12/11 14:16:02;;;;;;;17.25;7.15;;;;;;;;;;5011919;28;20062;-81
2022/12/11 14:18:34;;;;;;;19.40;6.70;;;;;;;;;;5022155;28;20085;-82
2022/12/11 14:21:04;;;;;;;22.15;8.50;;;;;;;;;;5021694;28;20036;-81
2022/12/11 14:23:37;;;;;;;19.08;8.20;;;;;;;;;;5003402;28;20144;-85
2022/12/11 14:26:18;;;;;;;22.20;8.98;;;;;;;;;;5011227;28;20515;-82
2022/12/11 14:28:47;;;;;;;17.30;7.78;;;;;;;;;;5020416;28;20491;-82
2022/12/11 14:31:32;;;;;;;17.13;7.35;;;;;;;;;;5008872;28;20129;-81
2022/12/11 14:34:06;;;;;;;18.38;7.50;;;;;;;;;;5020965;28;20458;-81
2022/12/11 14:36:34;;;;;;;21.20;9.02;;;;;;;;;;5020783;28;20045;-81
2022/12/11 14:39:15;;;;;;;16.77;7.53;;;;;;;;;;5001844;28;20084;-81
2022/12/11 14:42:03;;;;;;;16.13;7.10;;;;;;;;;;5018517;28;20471;-81
2022/12/11 14:45:03;;;;;;;16.35;7.63;;;;;;;;;;5020219;28;20322;-82
2022/12/11 14:47:39;;;;;;;17.45;8.05;;;;;;;;;;5024139;28;20048;-82
2022/12/11 14:50:26;;;;;;;21.30;8.20;;;;;;;;;;5022787;28;20041;-81
2022/12/11 14:52:57;;;;;;;20.02;6.88;;;;;;;;;;5022003;28;20123;-82
2022/12/11 14:55:29;;;;;;;17.45;7.13;;;;;;;;;;5019952;28;20156;-81
2022/12/11 14:58:02;;;;;;;17.55;7.68;;;;;;;;;;5034050;28;20132;-81
2022/12/11 15:01:04;;;;;;;18.35;7.65;;;;;;;;;;5023810;28;20558;-81
2022/12/11 15:03:38;;;;;;;17.35;7.05;;;;;;;;;;5003374;28;20475;-82
2022/12/11 15:09:42;;;;;;;16.98;6.75;;;;;;;;;;4986199;28;20060;-81
2022/12/11 15:12:13;;;;;;;16.02;6.70;;;;;;;;;;5008038;28;20132;-81
2022/12/11 15:14:54;;;;;;;19.80;8.20;;;;;;;;;;5003911;28;20155;-81
2022/12/11 15:17:22;;;;;;;20.73;6.78;;;;;;;;;;5023817;28;20512;-82
2022/12/11 15:19:54;;;;;;;18.05;6.78;;;;;;;;;;5023146;28;20043;-82
2022/12/11 15:22:29;;;;;;;16.23;6.28;;;;;;;;;;5023371;28;20168;-81
2022/12/11 15:25:03;;;;;;;17.08;6.85;;;;;;;;;;5022092;28;20053;-81
2022/12/11 15:27:39;;;;;;;16.98;7.07;;;;;;;;;;5024585;28;20574;-81
2022/12/11 15:30:25;;;;;;;17.45;7.53;;;;;;;;;;5022027;28;20164;-82
2022/12/11 15:33:08;;;;;;;15.85;6.18;;;;;;;;;;5023848;28;20072;-80
2022/12/11 15:35:39;;;;;;;19.25;7.85;;;;;;;;;;5018235;28;20054;-80
2022/12/11 15:38:34;;;;;;;15.48;7.10;;;;;;;;;;5008141;28;20113;-81
2022/12/11 15:41:04;;;;;;;21.08;8.35;;;;;;;;;;5005462;28;20157;-80
2022/12/11 15:43:34;;;;;;;22.20;8.98;;;;;;;;;;5022190;28;20034;-80
2022/12/11 15:46:04;;;;;;;24.40;10.40;;;;;;;;;;5022031;28;20242;-80
2022/12/11 15:48:31;;;;;;;22.25;10.40;;;;;;;;;;5021579;28;20037;-80
2022/12/11 15:51:26;;;;;;;26.27;11.35;;;;;;;;;;5007157;28;20037;-80
2022/12/11 15:53:55;;;;;;;24.15;10.63;;;;;;;;;;5022072;28;20147;-80
2022/12/11 15:56:23;;;;;;;24.40;9.18;;;;;;;;;;5021631;28;20034;-80
2022/12/11 15:58:51;;;;;;;27.30;9.98;;;;;;;;;;5021239;28;20045;-80